createdAt,value
2022-11-12T00:01:25.837Z,1040.32
2022-11-12T00:03:52.664Z,1040.27
2022-11-12T00:06:20.895Z,1040.27
2022-11-12T00:08:49.937Z,1040.26
2022-11-12T00:11:16.688Z,1040.20
2022-11-12T00:13:43.505Z,1040.21
2022-11-12T00:16:10.274Z,1040.23
2022-11-12T00:18:38.318Z,1040.16
2022-11-12T00:21:07.285Z,1040.15
2022-11-12T00:23:35.885Z,1040.13
2022-11-12T00:26:02.877Z,1040.13
2022-11-12T00:28:34.756Z,1040.18
2022-11-12T00:31:08.805Z,1040.20
2022-11-12T00:33:39.713Z,1040.22
2022-11-12T00:36:06.759Z,1040.12
2022-11-12T00:38:34.934Z,1040.17
2022-11-12T00:41:03.085Z,1040.19
2022-11-12T00:43:30.913Z,1040.15
2022-11-12T00:45:57.756Z,1040.07
2022-11-12T00:48:24.886Z,1040.02
2022-11-12T00:50:59.742Z,1040.07
2022-11-12T00:53:26.619Z,1040.03
2022-11-12T00:56:00.149Z,1040.07
2022-11-12T00:58:29.010Z,1040.12
2022-11-12T01:00:56.317Z,1040.23
2022-11-12T01:03:23.277Z,1040.14
2022-11-12T01:05:50.195Z,1040.06
2022-11-12T01:08:16.917Z,1040.13
2022-11-12T01:10:44.828Z,1040.14
2022-11-12T01:13:13.686Z,1040.11
2022-11-12T01:15:45.011Z,1040.12
2022-11-12T01:18:11.825Z,1039.99
2022-11-12T01:20:39.124Z,1040.02
2022-11-12T01:23:06.226Z,1039.97
2022-11-12T01:25:33.178Z,1039.89
2022-11-12T01:28:02.400Z,1039.85
2022-11-12T01:30:30.626Z,1039.79
2022-11-12T01:32:59.690Z,1039.78
2022-11-12T01:35:26.525Z,1039.72
2022-11-12T01:37:54.378Z,1039.63
2022-11-12T01:40:21.411Z,1039.60
2022-11-12T01:42:51.952Z,1039.58
2022-11-12T01:45:18.764Z,1039.48
2022-11-12T01:47:50.319Z,1039.49
2022-11-12T01:50:22.844Z,1039.38
2022-11-12T01:52:54.873Z,1039.35
2022-11-12T01:55:25.749Z,1039.35
2022-11-12T01:57:56.650Z,1039.34
2022-11-12T02:00:23.489Z,1039.34
2022-11-12T02:02:55.643Z,1039.28
2022-11-12T02:05:24.890Z,1039.36
2022-11-12T02:07:53.116Z,1039.31
2022-11-12T02:10:20.337Z,1039.38
2022-11-12T02:12:50.990Z,1039.28
2022-11-12T02:15:17.876Z,1039.28
2022-11-12T02:17:44.880Z,1039.29
2022-11-12T02:20:14.463Z,1039.27
2022-11-12T02:22:43.796Z,1039.26
2022-11-12T02:25:14.295Z,1039.23
2022-11-12T02:27:41.173Z,1039.27
2022-11-12T02:30:08.805Z,1039.32
2022-11-12T02:32:35.602Z,1039.25
2022-11-12T02:35:02.599Z,1039.32
2022-11-12T02:37:29.397Z,1039.26
2022-11-12T02:39:57.834Z,1039.22
2022-11-12T02:42:24.677Z,1039.20
2022-11-12T02:44:51.605Z,1039.27
2022-11-12T02:47:19.737Z,1039.29
2022-11-12T02:49:48.863Z,1039.14
2022-11-12T02:52:15.573Z,1039.20
2022-11-12T02:54:42.457Z,1039.33
2022-11-12T02:57:10.587Z,1039.32
2022-11-12T02:59:37.847Z,1039.28
2022-11-12T03:02:04.633Z,1039.20
2022-11-12T03:04:31.789Z,1039.23
2022-11-12T03:06:58.971Z,1039.16
2022-11-12T03:09:25.855Z,1039.09
2022-11-12T03:11:52.606Z,1039.15
2022-11-12T03:14:21.933Z,1039.07
2022-11-12T03:16:49.855Z,1039.14
2022-11-12T03:19:16.722Z,1039.16
2022-11-12T03:21:45.604Z,1039.11
2022-11-12T03:24:12.481Z,1039.22
2022-11-12T03:26:40.302Z,1039.25
2022-11-12T03:29:07.025Z,1039.25
2022-11-12T03:31:36.337Z,1039.28
2022-11-12T03:34:03.082Z,1039.16
2022-11-12T03:36:30.282Z,1039.16
2022-11-12T03:38:57.079Z,1039.13
2022-11-12T03:41:24.979Z,1039.19
2022-11-12T03:43:52.075Z,1039.08
2022-11-12T03:46:19.245Z,1039.04
2022-11-12T03:48:47.471Z,1039.06
2022-11-12T03:51:15.501Z,1039.06
2022-11-12T03:53:42.279Z,1039.00
2022-11-12T03:56:09.182Z,1039.04
2022-11-12T03:58:36.085Z,1038.95
2022-11-12T04:01:02.877Z,1038.96
2022-11-12T04:03:29.885Z,1038.88
2022-11-12T04:05:58.041Z,1038.83
2022-11-12T04:08:25.833Z,1038.81
2022-11-12T04:10:52.879Z,1038.79
2022-11-12T04:13:19.715Z,1038.78
2022-11-12T04:15:46.557Z,1038.67
2022-11-12T04:18:13.298Z,1038.65
2022-11-12T04:20:40.128Z,1038.58
2022-11-12T04:23:09.443Z,1038.57
2022-11-12T04:25:36.299Z,1038.54
2022-11-12T04:28:03.246Z,1038.43
2022-11-12T04:30:29.974Z,1038.44
2022-11-12T04:32:57.023Z,1038.47
2022-11-12T04:35:27.162Z,1038.49
2022-11-12T04:37:54.561Z,1038.57
2022-11-12T04:40:25.144Z,1038.44
2022-11-12T04:42:52.713Z,1038.45
2022-11-12T04:45:19.494Z,1038.40
2022-11-12T04:47:47.385Z,1038.42
2022-11-12T04:50:17.675Z,1038.49
2022-11-12T04:52:45.187Z,1038.42
2022-11-12T04:55:12.196Z,1038.38
2022-11-12T04:57:40.318Z,1038.27
2022-11-12T05:00:08.630Z,1038.16
2022-11-12T05:02:35.410Z,1038.10
2022-11-12T05:05:02.405Z,1038.10
2022-11-12T05:07:29.104Z,1038.15
2022-11-12T05:09:55.905Z,1038.22
2022-11-12T05:12:23.936Z,1038.25
2022-11-12T05:14:53.244Z,1038.34
2022-11-12T05:17:20.010Z,1038.34
2022-11-12T05:19:47.949Z,1038.44
2022-11-12T05:22:33.650Z,1038.48
2022-11-12T05:25:01.811Z,1038.35
2022-11-12T05:27:29.170Z,1038.39
2022-11-12T05:30:00.151Z,1038.39
2022-11-12T05:32:28.473Z,1038.44
2022-11-12T05:34:55.468Z,1038.36
2022-11-12T05:37:24.974Z,1038.40
2022-11-12T05:39:51.785Z,1038.41
2022-11-12T05:42:18.883Z,1038.42
2022-11-12T05:44:45.708Z,1038.39
2022-11-12T05:47:14.954Z,1038.34
2022-11-12T05:49:42.458Z,1038.27
2022-11-12T05:52:11.415Z,1038.33
2022-11-12T05:54:38.416Z,1038.39
2022-11-12T05:57:05.778Z,1038.29
2022-11-12T05:59:32.856Z,1038.23
2022-11-12T06:02:00.798Z,1038.15
2022-11-12T06:04:29.072Z,1038.13
2022-11-12T06:07:00.081Z,1038.14
2022-11-12T06:09:26.910Z,1037.99
2022-11-12T06:11:54.962Z,1037.97
2022-11-12T06:14:22.711Z,1038.00
2022-11-12T06:16:49.932Z,1038.01
2022-11-12T06:19:17.998Z,1037.94
2022-11-12T06:21:46.122Z,1037.85
2022-11-12T06:24:13.147Z,1037.80
2022-11-12T06:26:41.703Z,1037.81
2022-11-12T06:29:10.147Z,1037.84
2022-11-12T06:31:37.589Z,1037.77
2022-11-12T06:34:05.722Z,1037.79
2022-11-12T06:36:32.944Z,1037.74
2022-11-12T06:39:01.106Z,1037.71
2022-11-12T06:41:30.148Z,1037.60
2022-11-12T06:43:57.090Z,1037.66
2022-11-12T06:46:23.975Z,1037.70
2022-11-12T06:48:51.395Z,1037.59
2022-11-12T06:51:20.165Z,1037.51
2022-11-12T06:53:48.110Z,1037.53
2022-11-12T06:56:17.229Z,1037.51
2022-11-12T06:58:44.017Z,1037.39
2022-11-12T07:01:14.716Z,1037.27
2022-11-12T07:03:42.475Z,1037.40
2022-11-12T07:06:12.993Z,1037.43
2022-11-12T07:08:41.776Z,1037.42
2022-11-12T07:11:10.270Z,1037.39
2022-11-12T07:13:39.070Z,1037.24
2022-11-12T07:16:10.686Z,1037.19
2022-11-12T07:18:41.190Z,1037.22
2022-11-12T07:21:14.205Z,1037.23
2022-11-12T07:23:40.975Z,1037.15
2022-11-12T07:26:13.843Z,1037.08
2022-11-12T07:28:42.386Z,1037.12
2022-11-12T07:31:12.544Z,1037.24
2022-11-12T07:33:39.637Z,1037.17
2022-11-12T07:36:08.922Z,1037.24
2022-11-12T07:38:39.581Z,1037.17
2022-11-12T07:41:08.885Z,1037.02
2022-11-12T07:43:37.205Z,1036.86
2022-11-12T07:46:11.326Z,1036.88
2022-11-12T07:48:40.483Z,1036.78
2022-11-12T07:51:11.897Z,1036.77
2022-11-12T07:53:38.986Z,1036.72
2022-11-12T07:56:07.101Z,1036.61
2022-11-12T07:58:34.501Z,1036.53
2022-11-12T08:01:09.597Z,1036.42
2022-11-12T08:03:37.515Z,1036.34
2022-11-12T08:06:05.031Z,1036.37
2022-11-12T08:08:32.420Z,1036.30
2022-11-12T08:10:59.905Z,1036.26
2022-11-12T08:13:26.871Z,1036.20
2022-11-12T08:15:57.200Z,1036.15
2022-11-12T08:18:26.999Z,1036.15
2022-11-12T08:20:59.594Z,1036.12
2022-11-12T08:23:28.175Z,1036.07
2022-11-12T08:25:58.325Z,1036.05
2022-11-12T08:28:28.462Z,1036.00
2022-11-12T08:31:00.099Z,1035.93
2022-11-12T08:33:28.656Z,1035.95
2022-11-12T08:35:57.561Z,1036.02
2022-11-12T08:38:24.644Z,1035.97
2022-11-12T08:40:52.070Z,1035.92
2022-11-12T08:43:19.021Z,1035.87
2022-11-12T08:45:46.871Z,1035.78
2022-11-12T08:48:15.403Z,1035.77
2022-11-12T08:50:45.073Z,1035.70
2022-11-12T08:53:13.997Z,1035.67
2022-11-12T08:55:40.967Z,1035.58
2022-11-12T08:58:09.353Z,1035.60
2022-11-12T09:00:39.013Z,1035.63
2022-11-12T09:03:07.519Z,1035.52
2022-11-12T09:05:38.905Z,1035.42
2022-11-12T09:08:09.030Z,1035.39
2022-11-12T09:10:38.278Z,1035.37
2022-11-12T09:13:05.703Z,1035.40
2022-11-12T09:15:38.019Z,1035.39
2022-11-12T09:18:08.133Z,1035.24
2022-11-12T09:20:36.278Z,1035.35
2022-11-12T09:23:06.401Z,1035.27
2022-11-12T09:25:37.464Z,1035.20
2022-11-12T09:28:09.422Z,1035.17
2022-11-12T09:30:42.313Z,1035.07
2022-11-12T09:33:09.484Z,1035.10
2022-11-12T09:35:37.517Z,1035.03
2022-11-12T09:38:04.818Z,1035.14
2022-11-12T09:40:48.688Z,1035.02
2022-11-12T09:43:24.253Z,1034.92
2022-11-12T09:46:21.440Z,1034.91
2022-11-12T09:48:53.714Z,1034.74
2022-11-12T09:51:25.407Z,1034.67
2022-11-12T09:53:58.417Z,1034.51
2022-11-12T09:56:27.114Z,1034.39
2022-11-12T09:58:54.521Z,1034.38
2022-11-12T10:01:32.196Z,1034.35
2022-11-12T10:04:16.663Z,1034.31
2022-11-12T10:06:52.030Z,1034.35
2022-11-12T10:09:23.073Z,1034.29
2022-11-12T10:12:04.391Z,1034.20
2022-11-12T10:14:48.923Z,1034.18
2022-11-12T10:17:29.149Z,1034.15
2022-11-12T10:20:13.905Z,1034.12
2022-11-12T10:23:02.818Z,1034.03
2022-11-12T10:25:31.836Z,1033.97
2022-11-12T10:28:08.699Z,1034.00
2022-11-12T10:30:36.161Z,1034.08
2022-11-12T10:33:06.182Z,1034.06
2022-11-12T10:35:33.259Z,1034.04
2022-11-12T10:38:04.470Z,1034.05
2022-11-12T10:40:34.463Z,1034.00
2022-11-12T10:43:05.558Z,1034.01
2022-11-12T10:45:32.582Z,1033.95
2022-11-12T10:48:02.531Z,1033.96
2022-11-12T10:50:36.849Z,1033.89
2022-11-12T10:53:05.956Z,1033.82
2022-11-12T10:55:34.584Z,1033.83
2022-11-12T10:58:19.307Z,1033.72
2022-11-12T11:00:55.190Z,1033.77
2022-11-12T11:03:24.405Z,1033.76
2022-11-12T11:05:56.054Z,1033.66
2022-11-12T11:08:36.207Z,1033.61
2022-11-12T11:11:20.381Z,1033.56
2022-11-12T11:13:55.383Z,1033.48
2022-11-12T11:16:26.500Z,1033.53
2022-11-12T11:18:57.036Z,1033.50
2022-11-12T11:22:05.711Z,1033.47
2022-11-12T11:24:40.028Z,1033.48
2022-11-12T11:27:19.841Z,1033.41
2022-11-12T11:30:09.214Z,1033.47
2022-11-12T11:33:07.384Z,1033.30
2022-11-12T11:35:48.174Z,1033.20
2022-11-12T11:38:26.853Z,1033.22
2022-11-12T11:41:04.522Z,1033.19
2022-11-12T11:43:52.559Z,1033.18
2022-11-12T11:46:41.449Z,1033.18
2022-11-12T11:49:28.917Z,1033.29
2022-11-12T11:52:02.788Z,1033.26
2022-11-12T11:54:50.555Z,1033.14
2022-11-12T11:57:30.244Z,1033.15
2022-11-12T12:00:15.530Z,1033.17
2022-11-12T12:03:15.980Z,1033.06
2022-11-12T12:05:46.907Z,1032.99
2022-11-12T12:08:26.867Z,1032.86
2022-11-12T12:11:08.248Z,1032.73
2022-11-12T12:13:54.657Z,1032.65
2022-11-12T12:16:33.499Z,1032.46
2022-11-12T12:19:17.328Z,1032.39
2022-11-12T12:21:49.656Z,1032.33
2022-11-12T12:24:22.421Z,1032.41
2022-11-12T12:26:54.115Z,1032.37
2022-11-12T12:29:29.155Z,1032.33
2022-11-12T12:32:02.790Z,1032.38
2022-11-12T12:34:33.177Z,1032.26
2022-11-12T12:37:06.982Z,1032.27
2022-11-12T12:39:46.594Z,1032.12
2022-11-12T12:42:20.321Z,1032.14
2022-11-12T12:44:52.761Z,1032.21
2022-11-12T12:47:20.734Z,1032.31
2022-11-12T12:49:52.342Z,1032.49
2022-11-12T12:52:19.369Z,1032.65
2022-11-12T12:55:02.251Z,1032.83
2022-11-12T12:57:34.690Z,1032.96
2022-11-12T13:00:41.717Z,1032.95
2022-11-12T13:03:11.264Z,1032.82
2022-11-12T13:05:40.741Z,1032.87
2022-11-12T13:08:11.047Z,1032.83
2022-11-12T13:10:49.966Z,1032.95
2022-11-12T13:13:32.685Z,1033.05
2022-11-12T13:16:04.643Z,1033.14
2022-11-12T13:19:00.869Z,1033.15
2022-11-12T13:21:37.355Z,1033.12
2022-11-12T13:24:10.184Z,1033.24
2022-11-12T13:26:50.369Z,1033.24
2022-11-12T13:29:42.065Z,1033.25
2022-11-12T13:32:36.694Z,1033.43
2022-11-12T13:35:28.644Z,1033.40
2022-11-12T13:38:00.985Z,1033.55
2022-11-12T13:40:41.721Z,1033.64
2022-11-12T13:43:36.664Z,1033.65
2022-11-12T13:46:25.381Z,1033.50
2022-11-12T13:48:59.183Z,1033.42
2022-11-12T13:51:37.438Z,1033.32
2022-11-12T13:54:29.437Z,1033.30
2022-11-12T13:56:56.748Z,1033.22
2022-11-12T13:59:29.478Z,1033.01
2022-11-12T14:01:56.631Z,1033.00
2022-11-12T14:04:25.087Z,1032.91
2022-11-12T14:06:53.967Z,1032.89
2022-11-12T14:09:41.914Z,1032.93
2022-11-12T14:12:28.675Z,1032.93
2022-11-12T14:15:15.122Z,1033.03
2022-11-12T14:17:48.144Z,1033.02
2022-11-12T14:20:27.941Z,1033.10
2022-11-12T14:22:54.991Z,1033.05
2022-11-12T14:25:25.308Z,1033.12
2022-11-12T14:27:53.090Z,1033.11
2022-11-12T14:30:22.303Z,1033.26
2022-11-12T14:32:52.016Z,1033.21
2022-11-12T14:35:34.269Z,1033.25
2022-11-12T14:38:06.662Z,1033.23
2022-11-12T14:40:38.938Z,1033.15
2022-11-12T14:43:06.653Z,1033.14
2022-11-12T14:45:35.553Z,1033.19
2022-11-12T14:48:02.771Z,1033.21
2022-11-12T14:50:37.416Z,1033.18
2022-11-12T14:53:12.830Z,1033.18
2022-11-12T14:55:47.327Z,1033.18
2022-11-12T14:58:15.808Z,1033.28
2022-11-12T15:00:48.012Z,1033.24
2022-11-12T15:03:18.484Z,1033.31
2022-11-12T15:06:10.376Z,1033.40
2022-11-12T15:08:40.133Z,1033.46
2022-11-12T15:11:25.153Z,1033.55
2022-11-12T15:13:57.621Z,1033.80
2022-11-12T15:16:28.314Z,1033.73
2022-11-12T15:19:18.224Z,1033.67
2022-11-12T15:21:46.973Z,1033.67
2022-11-12T15:24:24.325Z,1033.60
2022-11-12T15:26:54.554Z,1033.56
2022-11-12T15:29:28.249Z,1033.60
2022-11-12T15:31:59.921Z,1033.74
2022-11-12T15:34:30.575Z,1033.95
2022-11-12T15:37:00.619Z,1033.75
2022-11-12T15:39:28.387Z,1033.92
2022-11-12T15:42:00.309Z,1033.87
2022-11-12T15:44:33.632Z,1033.71
2022-11-12T15:47:02.085Z,1033.73
2022-11-12T15:49:28.924Z,1033.76
2022-11-12T15:51:55.718Z,1033.96
2022-11-12T15:54:23.624Z,1033.90
2022-11-12T15:56:51.157Z,1033.96
2022-11-12T15:59:20.972Z,1034.00
2022-11-12T16:01:49.157Z,1033.90
2022-11-12T16:04:15.917Z,1034.04
2022-11-12T16:06:42.751Z,1033.97
2022-11-12T16:09:09.697Z,1034.00
2022-11-12T16:11:36.459Z,1034.13
2022-11-12T16:14:05.936Z,1034.21
2022-11-12T16:16:35.085Z,1034.06
2022-11-12T16:19:02.101Z,1034.04
2022-11-12T16:21:29.019Z,1034.19
2022-11-12T16:23:55.940Z,1034.32
2022-11-12T16:26:28.304Z,1034.28
2022-11-12T16:28:55.306Z,1034.38
2022-11-12T16:31:22.156Z,1034.40
2022-11-12T16:33:50.496Z,1034.38
2022-11-12T16:36:17.542Z,1034.29
2022-11-12T16:38:45.714Z,1034.33
2022-11-12T16:41:13.738Z,1034.31
2022-11-12T16:43:40.531Z,1034.23
2022-11-12T16:46:14.892Z,1034.32
2022-11-12T16:48:41.681Z,1034.32
2022-11-12T16:51:15.921Z,1034.30
2022-11-12T16:53:42.710Z,1034.33
2022-11-12T16:56:12.632Z,1034.38
2022-11-12T16:58:39.506Z,1034.40
2022-11-12T17:01:10.514Z,1034.42
2022-11-12T17:03:37.630Z,1034.50
2022-11-12T17:06:06.329Z,1034.48
2022-11-12T17:08:34.553Z,1034.37
2022-11-12T17:11:07.377Z,1034.40
2022-11-12T17:13:34.210Z,1034.41
2022-11-12T17:16:01.305Z,1034.54
2022-11-12T17:18:28.135Z,1034.52
2022-11-12T17:20:57.167Z,1034.61
2022-11-12T17:23:24.610Z,1034.61
2022-11-12T17:26:01.248Z,1034.65
2022-11-12T17:28:29.964Z,1034.68
2022-11-12T17:31:18.598Z,1034.56
2022-11-12T17:33:51.342Z,1034.59
2022-11-12T17:36:20.057Z,1034.55
2022-11-12T17:38:48.575Z,1034.55
2022-11-12T17:41:17.185Z,1034.65
2022-11-12T17:43:44.060Z,1034.68
2022-11-12T17:46:13.736Z,1034.70
2022-11-12T17:48:43.261Z,1034.64
2022-11-12T17:51:12.565Z,1034.62
2022-11-12T17:53:41.629Z,1034.66
2022-11-12T17:56:10.119Z,1034.53
2022-11-12T17:58:45.526Z,1034.62
2022-11-12T18:01:14.562Z,1034.74
2022-11-12T18:03:43.590Z,1034.71
2022-11-12T18:06:12.088Z,1034.75
2022-11-12T18:08:41.133Z,1034.78
2022-11-12T18:11:08.651Z,1034.85
2022-11-12T18:13:36.126Z,1034.85
2022-11-12T18:16:14.897Z,1034.91
2022-11-12T18:18:42.094Z,1034.88
2022-11-12T18:23:46.038Z,1034.89
2022-11-12T18:26:14.070Z,1034.84
2022-11-12T18:28:41.177Z,1034.83
2022-11-12T18:31:14.536Z,1034.89
2022-11-12T18:33:41.461Z,1035.06
2022-11-12T18:36:11.218Z,1035.06
2022-11-12T18:38:38.151Z,1035.11
2022-11-12T18:41:07.087Z,1035.01
2022-11-12T18:43:35.657Z,1035.00
2022-11-12T18:46:03.563Z,1035.08
2022-11-12T18:48:33.493Z,1035.25
2022-11-12T18:51:02.694Z,1035.39
2022-11-12T18:53:30.135Z,1035.38
2022-11-12T18:56:02.226Z,1035.37
2022-11-12T18:58:34.860Z,1035.50
2022-11-12T19:01:04.169Z,1035.51
2022-11-12T19:03:32.684Z,1035.54
2022-11-12T19:06:01.749Z,1035.53
2022-11-12T19:08:29.100Z,1035.61
2022-11-12T19:10:59.299Z,1035.60
2022-11-12T19:13:28.137Z,1035.63
2022-11-12T19:15:56.038Z,1035.55
2022-11-12T19:18:23.758Z,1035.57
2022-11-12T19:20:59.457Z,1035.58
2022-11-12T19:23:27.455Z,1035.60
2022-11-12T19:25:54.571Z,1035.53
2022-11-12T19:28:21.603Z,1035.47
2022-11-12T19:30:48.479Z,1035.39
2022-11-12T19:33:16.971Z,1035.47
2022-11-12T19:35:43.931Z,1035.42
2022-11-12T19:38:14.686Z,1035.39
2022-11-12T19:40:42.189Z,1035.35
2022-11-12T19:43:09.416Z,1035.20
2022-11-12T19:45:36.367Z,1035.16
2022-11-12T19:48:03.581Z,1035.20
2022-11-12T19:50:30.547Z,1035.28
2022-11-12T19:52:57.384Z,1035.29
2022-11-12T19:55:25.647Z,1035.21
2022-11-12T19:57:52.549Z,1035.19
2022-11-12T20:00:21.724Z,1035.14
2022-11-12T20:02:48.482Z,1035.21
2022-11-12T20:05:15.480Z,1035.18
2022-11-12T20:07:42.477Z,1035.15
2022-11-12T20:10:11.947Z,1035.27
2022-11-12T20:12:40.221Z,1035.32
2022-11-12T20:15:08.780Z,1035.19
2022-11-12T20:17:35.990Z,1035.15
2022-11-12T20:20:04.322Z,1035.11
2022-11-12T20:22:32.296Z,1035.02
2022-11-12T20:24:59.826Z,1034.91
2022-11-12T20:27:26.928Z,1035.05
2022-11-12T20:29:55.271Z,1035.15
2022-11-12T20:32:22.814Z,1035.11
2022-11-12T20:34:49.610Z,1035.17
2022-11-12T20:37:20.577Z,1035.07
2022-11-12T20:39:47.620Z,1035.14
2022-11-12T20:42:14.447Z,1035.10
2022-11-12T20:44:41.458Z,1035.27
2022-11-12T20:47:12.467Z,1035.13
2022-11-12T20:49:39.399Z,1035.13
2022-11-12T20:52:07.459Z,1035.07
2022-11-12T20:54:34.291Z,1035.13
2022-11-12T20:57:01.438Z,1035.13
2022-11-12T20:59:34.218Z,1035.22
2022-11-12T21:02:02.183Z,1035.26
2022-11-12T21:04:30.319Z,1035.29
2022-11-12T21:07:02.295Z,1035.27
2022-11-12T21:09:32.009Z,1035.15
2022-11-12T21:11:59.272Z,1035.14
2022-11-12T21:14:26.251Z,1035.18
2022-11-12T21:16:53.025Z,1035.14
2022-11-12T21:19:23.495Z,1035.10
2022-11-12T21:21:51.759Z,1035.17
2022-11-12T21:24:19.733Z,1035.17
2022-11-12T21:26:48.637Z,1035.22
2022-11-12T21:29:18.917Z,1035.14
2022-11-12T21:31:45.983Z,1035.15
2022-11-12T21:34:14.253Z,1035.20
2022-11-12T21:36:41.188Z,1035.09
2022-11-12T21:39:09.896Z,1035.04
2022-11-12T21:41:38.318Z,1035.06
2022-11-12T21:44:05.269Z,1035.09
2022-11-12T21:46:32.967Z,1035.04
2022-11-12T21:48:59.940Z,1035.18
2022-11-12T21:51:28.562Z,1035.12
2022-11-12T21:53:57.115Z,1035.18
2022-11-12T21:56:26.599Z,1035.12
2022-11-12T21:58:54.387Z,1035.00
2022-11-12T22:01:24.257Z,1035.04
2022-11-12T22:03:52.539Z,1035.09
2022-11-12T22:06:21.302Z,1035.03
2022-11-12T22:08:51.630Z,1035.04
2022-11-12T22:11:18.991Z,1035.00
2022-11-12T22:13:47.798Z,1034.87
2022-11-12T22:16:16.641Z,1034.84
2022-11-12T22:18:45.780Z,1034.84
2022-11-12T22:21:15.097Z,1034.75
2022-11-12T22:23:42.233Z,1034.64
2022-11-12T22:26:12.554Z,1034.54
2022-11-12T22:28:39.428Z,1034.65
2022-11-12T22:31:09.799Z,1034.69
2022-11-12T22:33:36.826Z,1034.68
2022-11-12T22:36:07.126Z,1034.73
2022-11-12T22:38:35.301Z,1034.64
2022-11-12T22:41:03.525Z,1034.51
2022-11-12T22:43:30.554Z,1034.46
2022-11-12T22:45:57.409Z,1034.30
2022-11-12T22:48:26.159Z,1034.32
2022-11-12T22:50:58.753Z,1034.38
2022-11-12T22:53:25.914Z,1034.45
2022-11-12T22:55:52.691Z,1034.45
2022-11-12T22:58:21.101Z,1034.50
2022-11-12T23:00:48.091Z,1034.42
2022-11-12T23:03:15.305Z,1034.49
2022-11-12T23:05:43.580Z,1034.53
2022-11-12T23:08:11.999Z,1034.53
2022-11-12T23:10:43.041Z,1034.33
2022-11-12T23:13:12.556Z,1034.28
2022-11-12T23:15:42.381Z,1034.37
2022-11-12T23:18:09.413Z,1034.16
2022-11-12T23:20:36.428Z,1034.17
2022-11-12T23:23:04.914Z,1034.32
2022-11-12T23:25:33.675Z,1034.42
2022-11-12T23:28:00.851Z,1034.45
2022-11-12T23:30:27.820Z,1034.42
2022-11-12T23:32:54.760Z,1034.54
2022-11-12T23:35:23.816Z,1034.43
2022-11-12T23:37:52.121Z,1034.46
2022-11-12T23:40:20.714Z,1034.43
2022-11-12T23:42:47.514Z,1034.47
2022-11-12T23:45:15.839Z,1034.57
2022-11-12T23:47:42.655Z,1034.67
2022-11-12T23:50:11.615Z,1034.49
2022-11-12T23:52:38.412Z,1034.48
2022-11-12T23:55:06.021Z,1034.65
2022-11-12T23:57:34.470Z,1034.53
